createdAt,value
2018-07-24T12:58:25.513Z,99.90
2018-07-24T13:08:39.392Z,53.00
2018-07-24T13:12:53.731Z,52.50
2018-07-24T13:20:48.488Z,49.70
2018-07-24T13:22:32.464Z,51.60
2018-07-24T13:29:27.764Z,52.30
2018-07-24T13:34:10.279Z,53.40
2018-07-24T13:35:59.002Z,52.40
2018-07-24T13:37:39.185Z,52.40
2018-07-24T13:39:22.444Z,52.80
2018-07-24T13:41:21.298Z,53.70
2018-07-24T13:43:04.152Z,53.00
2018-07-24T13:44:52.953Z,50.90
2018-07-24T13:46:38.619Z,50.70
2018-07-24T13:48:27.360Z,51.70
2018-07-24T13:50:10.129Z,52.20
2018-07-24T14:02:58.463Z,50.30
2018-07-24T14:04:51.025Z,48.30
2018-07-24T14:11:19.342Z,50.20
2018-07-24T14:13:17.913Z,50.00
2018-07-24T14:20:13.915Z,49.60
2018-07-24T14:27:47.390Z,49.20
2018-07-24T14:29:31.347Z,48.30
2018-07-24T14:31:47.352Z,47.10
2018-07-24T14:43:07.942Z,46.30
2018-07-24T14:45:09.686Z,47.20
2018-07-24T14:53:51.940Z,46.40
2018-07-24T14:58:10.861Z,48.40
2018-07-24T15:00:27.438Z,49.20
2018-07-24T15:02:15.645Z,48.90
2018-07-24T15:04:13.371Z,49.30
2018-07-24T15:06:13.624Z,49.00
2018-07-24T15:08:41.428Z,48.70
2018-07-24T15:10:32.618Z,49.00
2018-07-24T15:12:41.621Z,48.70
2018-07-24T15:14:21.559Z,48.00
2018-07-24T15:16:04.801Z,46.80
2018-07-24T15:18:07.249Z,46.80
2018-07-24T15:20:01.505Z,46.80
2018-07-24T15:31:08.637Z,46.40
2018-07-24T15:35:44.990Z,46.00
2018-07-24T15:50:59.483Z,46.20
2018-07-24T15:53:09.551Z,45.50
2018-07-24T15:59:56.631Z,45.20
2018-07-24T16:26:12.082Z,44.90
2018-07-24T16:27:48.458Z,46.10
2018-07-24T16:29:24.762Z,46.50
2018-07-24T16:31:02.837Z,44.30
2018-07-24T16:32:40.980Z,44.10
2018-07-24T16:34:18.256Z,44.30
2018-07-24T16:35:54.741Z,44.70
2018-07-24T16:37:31.457Z,45.10
2018-07-24T16:39:11.774Z,46.10
2018-07-24T16:40:48.871Z,45.50
2018-07-24T16:42:28.435Z,45.50
2018-07-24T16:44:12.837Z,45.50
2018-07-24T16:45:52.498Z,45.40
2018-07-24T16:47:29.495Z,45.10
2018-07-24T16:49:06.033Z,45.20
2018-07-24T16:50:44.538Z,45.60
2018-07-24T16:52:23.515Z,44.70
2018-07-24T16:54:04.054Z,44.70
2018-07-24T16:55:41.938Z,43.90
2018-07-24T16:57:22.623Z,44.50
2018-07-24T16:58:59.892Z,43.80
2018-07-24T17:00:37.080Z,43.80
2018-07-24T17:02:16.639Z,43.50
2018-07-24T17:10:20.265Z,44.70
2018-07-24T17:11:57.933Z,44.00
2018-07-24T17:13:35.936Z,44.30
2018-07-24T17:15:18.548Z,44.50
2018-07-24T17:16:57.717Z,44.10
2018-07-24T17:18:37.299Z,44.40
2018-07-24T17:20:16.584Z,44.20
2018-07-24T17:21:54.554Z,44.90
2018-07-24T17:23:30.982Z,44.30
2018-07-24T17:25:08.447Z,44.00
2018-07-24T17:26:45.221Z,44.00
2018-07-24T17:28:28.673Z,44.50
2018-07-24T17:30:08.169Z,44.60
2018-07-24T17:31:48.230Z,45.10
2018-07-24T17:33:26.703Z,44.70
2018-07-24T17:35:07.561Z,46.40
2018-07-24T17:36:47.592Z,45.10
2018-07-24T17:38:25.626Z,43.90
2018-07-24T17:40:06.325Z,44.10
2018-07-24T17:41:43.538Z,43.30
2018-07-24T17:43:22.617Z,43.50
2018-07-24T17:45:00.658Z,43.40
2018-07-24T17:46:38.709Z,44.40
2018-07-24T17:48:16.182Z,43.90
2018-07-24T17:49:52.715Z,43.90
2018-07-24T17:51:29.239Z,44.20
2018-07-24T17:53:07.940Z,44.40
2018-07-24T17:54:46.810Z,44.40
2018-07-24T17:56:29.206Z,44.50
2018-07-24T17:58:05.682Z,44.90
2018-07-24T18:00:04.696Z,43.20
2018-07-24T18:01:43.430Z,43.40
2018-07-24T18:03:20.521Z,43.40
2018-07-24T18:04:57.029Z,44.80
2018-07-24T18:06:36.104Z,44.30
2018-07-24T18:08:20.202Z,44.50
2018-07-24T18:10:02.299Z,44.00
2018-07-24T18:11:40.333Z,44.10
2018-07-24T18:13:18.491Z,44.90
2018-07-24T18:14:55.882Z,44.30
2018-07-24T18:16:32.342Z,44.90
2018-07-24T18:18:10.826Z,45.20
2018-07-24T18:19:54.141Z,43.90
2018-07-24T18:21:42.535Z,43.80
2018-07-24T18:23:20.937Z,43.90
2018-07-24T18:24:59.714Z,43.90
2018-07-24T18:26:38.582Z,44.20
2018-07-24T18:28:15.274Z,44.40
2018-07-24T18:29:53.796Z,44.00
2018-07-24T18:31:34.538Z,45.30
2018-07-24T18:33:13.084Z,45.50
2018-07-24T18:34:51.294Z,45.00
2018-07-24T18:36:30.237Z,44.30
2018-07-24T18:38:10.270Z,44.90
2018-07-24T18:39:53.663Z,44.90
2018-07-24T18:41:31.355Z,44.80
2018-07-24T18:43:29.916Z,44.90
2018-07-24T18:45:10.901Z,44.20
2018-07-24T18:46:48.201Z,44.50
2018-07-24T18:48:29.790Z,44.80
2018-07-24T18:50:07.929Z,45.10
2018-07-24T18:51:45.457Z,45.30
2018-07-24T18:53:22.606Z,44.70
2018-07-24T18:55:00.082Z,45.10
2018-07-24T18:56:38.250Z,44.90
2018-07-24T18:58:15.234Z,44.70
2018-07-24T18:59:52.300Z,44.90
2018-07-24T19:01:31.843Z,45.10
2018-07-24T19:03:10.265Z,44.90
2018-07-24T19:04:50.491Z,44.90
2018-07-24T19:06:34.943Z,44.90
2018-07-24T19:08:11.471Z,45.10
2018-07-24T19:09:48.656Z,44.80
2018-07-24T19:11:28.390Z,45.00
2018-07-24T19:13:05.467Z,45.00
2018-07-24T19:14:42.847Z,45.90
2018-07-24T19:16:19.745Z,46.10
2018-07-24T19:18:02.653Z,46.40
2018-07-24T19:19:42.352Z,47.00
2018-07-24T19:21:20.790Z,46.90
2018-07-24T19:23:01.792Z,46.60
2018-07-24T19:25:11.387Z,46.60
2018-07-24T19:26:54.378Z,46.60
2018-07-24T19:28:32.182Z,47.00
2018-07-24T19:30:12.259Z,49.80
2018-07-24T19:31:52.291Z,49.00
2018-07-24T19:33:30.612Z,50.70
2018-07-24T19:35:09.563Z,49.00
2018-07-24T19:36:48.655Z,48.00
2018-07-24T19:38:26.570Z,51.60
2018-07-24T19:40:06.633Z,50.00
2018-07-24T19:41:46.188Z,50.30
2018-07-24T19:43:29.849Z,48.70
2018-07-24T19:45:08.676Z,49.70
2018-07-24T19:46:58.558Z,48.60
2018-07-24T19:48:42.570Z,48.70
2018-07-24T19:50:28.536Z,48.80
2018-07-24T19:52:16.502Z,48.90
2018-07-24T19:53:56.592Z,48.60
2018-07-24T19:55:36.997Z,49.20
2018-07-24T19:57:15.959Z,48.70
2018-07-24T19:58:53.023Z,48.80
2018-07-24T20:00:35.252Z,49.20
2018-07-24T20:02:14.703Z,49.40
2018-07-24T20:03:53.499Z,51.90
2018-07-24T20:05:30.816Z,49.40
2018-07-24T20:07:09.409Z,50.10
2018-07-24T20:08:48.433Z,49.50
2018-07-24T20:10:25.253Z,49.60
2018-07-24T20:12:09.418Z,49.70
2018-07-24T20:13:51.369Z,53.10
2018-07-24T20:15:32.471Z,53.20
2018-07-24T20:17:17.934Z,56.00
2018-07-24T20:19:02.257Z,50.90
2018-07-24T20:20:42.101Z,51.80
2018-07-24T20:22:33.392Z,51.30
2018-07-24T20:24:13.947Z,51.40
2018-07-24T20:25:51.150Z,51.30
2018-07-24T20:27:34.266Z,51.50
2018-07-24T20:29:13.302Z,52.00
2018-07-24T20:30:56.550Z,51.60
2018-07-24T20:32:34.646Z,51.60
2018-07-24T20:34:14.485Z,52.30
2018-07-24T20:35:55.034Z,52.50
2018-07-24T20:37:45.557Z,52.70
2018-07-24T20:39:25.680Z,53.00
2018-07-24T20:41:06.063Z,53.50
2018-07-24T20:42:47.836Z,53.70
2018-07-24T20:44:30.028Z,54.00
2018-07-24T20:46:06.753Z,53.90
2018-07-24T20:47:46.757Z,54.30
2018-07-24T20:49:24.633Z,54.50
2018-07-24T20:51:04.453Z,54.30
2018-07-24T20:52:46.741Z,54.50
2018-07-24T20:54:25.790Z,54.70
2018-07-24T20:56:02.510Z,55.00
2018-07-24T20:57:40.355Z,55.30
2018-07-24T21:00:48.129Z,55.80
2018-07-24T21:02:24.597Z,55.50
2018-07-24T21:04:03.038Z,56.10
2018-07-24T21:05:42.137Z,56.20
2018-07-24T21:07:21.728Z,56.30
2018-07-24T21:08:58.488Z,56.40
2018-07-24T21:10:36.919Z,56.70
2018-07-24T21:12:13.618Z,57.10
2018-07-24T21:13:50.137Z,56.80
2018-07-24T21:15:31.803Z,56.90
2018-07-24T21:17:13.731Z,56.90
2018-07-24T21:18:51.450Z,57.50
2018-07-24T21:20:28.062Z,57.50
2018-07-24T21:22:04.664Z,57.80
2018-07-24T21:23:45.898Z,58.10
2018-07-24T21:25:22.588Z,58.30
2018-07-24T21:26:59.055Z,58.60
2018-07-24T21:28:35.570Z,58.60
2018-07-24T21:30:15.995Z,58.90
2018-07-24T21:31:53.112Z,59.10
2018-07-24T21:33:29.499Z,59.10
2018-07-24T21:35:08.717Z,58.80
2018-07-24T21:36:47.552Z,59.70
2018-07-24T21:38:24.553Z,62.30
2018-07-24T21:40:06.925Z,63.80
2018-07-24T21:41:47.516Z,63.80
2018-07-24T21:43:25.652Z,63.80
2018-07-24T21:45:04.813Z,63.70
2018-07-24T21:46:44.241Z,63.40
2018-07-24T21:48:22.031Z,63.10
2018-07-24T21:49:59.237Z,63.10
2018-07-24T21:51:39.853Z,63.00
2018-07-24T21:53:20.621Z,61.90
2018-07-24T21:54:57.045Z,62.50
2018-07-24T21:56:34.194Z,62.50
2018-07-24T21:58:12.502Z,62.20
2018-07-24T21:59:48.983Z,62.10
2018-07-24T22:01:28.306Z,62.50
2018-07-24T22:03:09.383Z,63.50
2018-07-24T22:04:46.669Z,63.90
2018-07-24T22:06:23.703Z,65.00
2018-07-24T22:08:00.351Z,65.80
2018-07-24T22:09:37.452Z,66.60
2018-07-24T22:11:15.026Z,68.30
2018-07-24T22:12:54.183Z,70.00
2018-07-24T22:14:30.754Z,71.80
2018-07-24T22:16:07.617Z,74.10
2018-07-24T22:17:44.463Z,76.00
2018-07-24T22:19:23.208Z,77.60
2018-07-24T22:22:52.344Z,81.00
2018-07-24T22:24:32.505Z,83.10
2018-07-24T22:26:10.306Z,84.60
2018-07-24T22:27:47.683Z,86.00
2018-07-24T22:29:24.242Z,87.10
2018-07-24T22:31:01.318Z,87.90
2018-07-24T22:32:38.578Z,88.70
2018-07-24T22:34:15.798Z,89.30
2018-07-24T22:35:54.824Z,89.90
2018-07-24T22:37:35.554Z,90.40
2018-07-24T22:39:13.188Z,90.50
2018-07-24T22:40:55.343Z,90.80
2018-07-24T22:42:37.355Z,91.20
2018-07-24T22:44:20.831Z,91.90
2018-07-24T22:46:03.614Z,92.20
2018-07-24T22:47:41.539Z,92.50
2018-07-24T22:49:21.727Z,92.90
2018-07-24T22:51:05.216Z,93.40
2018-07-24T22:52:43.955Z,93.50
2018-07-24T22:54:22.907Z,94.10
2018-07-24T22:56:03.489Z,94.30
2018-07-24T22:57:42.352Z,94.70
2018-07-24T22:59:20.592Z,94.80
2018-07-24T23:00:57.808Z,94.90
2018-07-24T23:02:40.128Z,95.10
2018-07-24T23:04:20.513Z,95.10
2018-07-24T23:05:56.949Z,95.10
2018-07-24T23:07:33.901Z,95.40
2018-07-24T23:09:11.725Z,95.30
2018-07-24T23:10:49.830Z,95.50
2018-07-24T23:14:29.120Z,95.40
2018-07-24T23:16:07.522Z,95.50
2018-07-24T23:17:43.952Z,95.70
2018-07-24T23:19:22.204Z,95.90
2018-07-24T23:21:00.520Z,96.00
2018-07-24T23:22:38.115Z,96.10
2018-07-24T23:24:14.608Z,96.10
2018-07-24T23:25:52.765Z,96.20
2018-07-24T23:27:29.985Z,96.30
2018-07-24T23:29:07.133Z,96.40
2018-07-24T23:32:22.595Z,96.60
2018-07-24T23:33:59.021Z,96.60
2018-07-24T23:35:35.446Z,96.60
2018-07-24T23:37:11.836Z,96.70
2018-07-24T23:38:52.737Z,96.90
2018-07-24T23:40:29.809Z,97.00
2018-07-24T23:42:06.398Z,96.80
2018-07-24T23:43:42.790Z,97.00
2018-07-24T23:45:21.360Z,97.60
2018-07-24T23:46:57.850Z,97.40
2018-07-24T23:48:34.288Z,97.40
2018-07-24T23:50:11.083Z,97.50
2018-07-24T23:51:50.166Z,97.70
2018-07-24T23:53:28.677Z,97.70
2018-07-24T23:55:06.271Z,97.90
2018-07-24T23:56:44.772Z,97.80
2018-07-24T23:58:22.187Z,97.80
